Time;durP1;ratioP1;P1;durP2;ratioP2;P2;SDS_P1;SDS_P2;PMS_P1;PMS_P2;Temp;Humidity;BMP_temperature;BMP_pressure;BME280_temperature;BME280_humidity;BME280_pressure;Samples;Min_cycle;Max_cycle;Signal;HPM_P1;HPM_P2
2021/10/08 00:02:42;;;;;;;;;18.50;17.75;;;;;9.34;37.39;102806.06;5033317;28;11609;-76
2021/10/08 00:05:37;;;;;;;;;23.50;21.25;;;;;9.41;37.19;102812.16;5020136;28;11621;-76
2021/10/08 00:08:33;;;;;;;;;22.25;21.50;;;;;9.49;37.32;102814.38;5033103;28;11591;-77
2021/10/08 00:11:29;;;;;;;;;37.00;31.75;;;;;9.41;37.32;102809.38;5033820;28;11594;-77
2021/10/08 00:14:26;;;;;;;;;20.00;20.00;;;;;9.39;37.62;102808.84;5054335;28;11635;-77
2021/10/08 00:17:22;;;;;;;;;26.50;23.25;;;;;9.44;37.66;102806.09;5039500;28;11628;-76
2021/10/08 00:20:18;;;;;;;;;21.50;20.00;;;;;9.46;37.46;102810.25;5053695;28;11601;-76
2021/10/08 00:23:14;;;;;;;;;23.00;21.50;;;;;9.25;37.75;102813.22;5052968;28;11631;-76
2021/10/08 00:26:10;;;;;;;;;25.25;25.25;;;;;9.35;37.63;102810.47;5052656;28;11584;-75
2021/10/08 00:29:06;;;;;;;;;26.75;24.00;;;;;9.45;37.82;102810.53;5052731;28;11623;-75
2021/10/08 00:32:02;;;;;;;;;33.50;28.50;;;;;9.35;38.00;102813.22;5052659;28;11615;-77
2021/10/08 00:34:57;;;;;;;;;35.25;34.50;;;;;9.42;38.04;102813.81;5052486;28;11629;-75
2021/10/08 00:37:54;;;;;;;;;36.00;32.75;;;;;9.46;38.19;102809.41;5052520;28;11726;-75
2021/10/08 00:40:49;;;;;;;;;28.00;27.25;;;;;9.43;38.10;102815.47;5052549;28;11610;-76
2021/10/08 00:43:46;;;;;;;;;42.50;30.75;;;;;9.40;38.07;102802.22;5052131;28;11601;-76
2021/10/08 00:46:44;;;;;;;;;32.00;31.25;;;;;9.43;38.09;102815.47;5064025;28;11605;-75
2021/10/08 00:49:40;;;;;;;;;24.75;24.00;;;;;9.35;38.61;102810.47;5052331;28;11583;-76
2021/10/08 00:52:36;;;;;;;;;24.50;23.75;;;;;9.29;38.55;102809.66;5039117;28;11608;-76
2021/10/08 00:55:33;;;;;;;;;28.25;28.00;;;;;9.35;38.32;102802.19;5052152;28;11576;-76
2021/10/08 00:58:29;;;;;;;;;36.50;31.50;;;;;9.50;38.52;102809.69;5038980;28;11687;-76
2021/10/08 01:01:26;;;;;;;;;22.50;22.25;;;;;9.58;38.30;102801.69;5052948;28;11626;-76
2021/10/08 01:04:24;;;;;;;;;19.25;19.00;;;;;9.36;38.43;102810.22;5052065;28;11669;-77
2021/10/08 01:07:19;;;;;;;;;24.00;21.25;;;;;9.42;38.55;102816.56;5051935;28;11626;-76
2021/10/08 01:10:15;;;;;;;;;28.00;28.00;;;;;9.35;38.65;102816.00;5038625;28;11622;-76
2021/10/08 01:13:12;;;;;;;;;23.25;23.25;;;;;9.35;38.63;102810.47;5038821;28;11616;-76
2021/10/08 01:16:08;;;;;;;;;22.25;17.75;;;;;9.49;38.59;102814.38;5052139;28;11692;-76
2021/10/08 01:19:03;;;;;;;;;22.75;22.75;;;;;9.39;38.63;102804.16;5038608;28;11667;-76
2021/10/08 01:21:59;;;;;;;;;28.75;28.25;;;;;9.50;38.93;102816.03;5051693;28;11591;-77
2021/10/08 01:24:54;;;;;;;;;8.00;7.25;;;;;9.48;39.16;102812.72;5051810;28;11688;-76
2021/10/08 01:27:50;;;;;;;;;22.75;22.25;;;;;9.39;38.75;102812.44;5051814;28;11526;-76
2021/10/08 01:30:47;;;;;;;;;26.75;25.75;;;;;9.46;38.87;102815.78;5038450;28;11637;-76
2021/10/08 01:33:42;;;;;;;;;31.00;29.25;;;;;9.37;39.34;102811.88;5051918;28;11678;-76
2021/10/08 01:36:38;;;;;;;;;28.25;28.25;;;;;9.31;39.21;102809.38;5051757;28;11571;-75
2021/10/08 01:39:33;;;;;;;;;29.50;29.25;;;;;9.34;39.24;102817.09;5051571;28;11594;-76
2021/10/08 01:42:30;;;;;;;;;31.50;31.00;;;;;9.32;39.03;102813.78;5051725;28;11611;-76
2021/10/08 01:45:25;;;;;;;;;28.50;27.75;;;;;9.34;38.83;102811.56;5038246;28;12519;-77
2021/10/08 01:48:21;;;;;;;;;26.00;24.75;;;;;9.30;38.88;102822.34;5039163;28;11605;-76
2021/10/08 01:51:17;;;;;;;;;27.00;25.25;;;;;9.34;39.23;102806.88;5038314;28;11607;-76
2021/10/08 01:54:12;;;;;;;;;32.75;30.50;;;;;9.34;38.90;102823.44;5051803;28;12448;-76
2021/10/08 01:57:08;;;;;;;;;41.00;38.00;;;;;9.31;39.16;102826.75;5051542;28;11608;-77
2021/10/08 02:00:05;;;;;;;;;44.25;39.25;;;;;9.33;39.06;102812.69;5051604;28;11603;-76
2021/10/08 02:03:00;;;;;;;;;33.25;31.00;;;;;9.41;39.05;102821.25;5038378;28;12371;-76
2021/10/08 02:05:56;;;;;;;;;22.50;22.50;;;;;9.44;39.08;102814.38;5051190;28;11597;-76
2021/10/08 02:08:51;;;;;;;;;31.75;31.25;;;;;9.39;39.19;102822.66;5051537;28;11680;-77
2021/10/08 02:11:47;;;;;;;;;32.25;30.00;;;;;9.35;39.39;102818.75;5051475;28;11721;-76
2021/10/08 02:14:43;;;;;;;;;35.25;33.75;;;;;9.31;39.57;102823.19;5039524;28;11615;-77
2021/10/08 02:17:38;;;;;;;;;38.75;30.75;;;;;9.50;39.44;102834.53;5051028;28;11620;-76
2021/10/08 02:20:34;;;;;;;;;27.50;25.00;;;;;9.39;39.42;102833.69;5063037;28;11604;-77
2021/10/08 02:23:30;;;;;;;;;29.50;29.50;;;;;9.31;39.56;102835.03;5050905;28;11630;-77
2021/10/08 02:26:26;;;;;;;;;31.00;28.00;;;;;9.52;39.22;102838.72;5051414;28;11587;-76
2021/10/08 02:29:21;;;;;;;;;38.25;34.25;;;;;9.46;39.51;102835.09;5050576;28;11586;-77
2021/10/08 02:32:18;;;;;;;;;18.25;18.25;;;;;9.27;39.55;102828.38;5052204;28;11608;-78
2021/10/08 02:35:13;;;;;;;;;22.50;22.50;;;;;9.34;39.55;102830.91;5052540;28;11587;-76
2021/10/08 02:38:09;;;;;;;;;22.75;22.00;;;;;9.25;39.85;102835.28;5054723;28;11613;-76
2021/10/08 02:41:05;;;;;;;;;30.75;27.75;;;;;9.24;40.03;102833.63;5054671;28;11688;-78
2021/10/08 02:44:01;;;;;;;;;14.25;14.25;;;;;9.21;40.00;102837.78;5054735;28;11724;-76
2021/10/08 02:46:56;;;;;;;;;22.25;21.00;;;;;9.18;40.32;102843.81;5055559;28;11637;-77
2021/10/08 02:49:52;;;;;;;;;22.00;17.75;;;;;9.14;40.39;102840.78;5054776;28;11594;-77
2021/10/08 02:52:47;;;;;;;;;22.75;21.25;;;;;9.23;40.07;102843.84;5041333;28;11571;-76
2021/10/08 02:55:43;;;;;;;;;22.00;21.25;;;;;9.21;40.53;102835.03;5041076;28;11611;-76
2021/10/08 02:58:38;;;;;;;;;20.75;19.25;;;;;9.19;40.51;102843.53;5045219;28;11637;-76
2021/10/08 03:01:35;;;;;;;;;16.25;14.25;;;;;9.11;40.55;102844.06;5037228;28;11618;-76
2021/10/08 03:04:30;;;;;;;;;16.25;16.25;;;;;9.21;40.63;102846.06;5034400;28;11586;-75
2021/10/08 03:07:27;;;;;;;;;26.25;24.25;;;;;9.30;40.74;102835.31;5022267;28;11690;-75
2021/10/08 03:10:22;;;;;;;;;23.25;18.50;;;;;9.20;40.67;102849.91;5042899;28;11591;-76
2021/10/08 03:13:18;;;;;;;;;21.00;21.00;;;;;9.30;40.64;102844.44;5054106;28;11607;-75
2021/10/08 03:16:14;;;;;;;;;37.75;28.25;;;;;9.25;40.84;102836.13;5053840;28;12371;-75
2021/10/08 03:19:09;;;;;;;;;29.00;27.75;;;;;9.32;41.11;102846.91;5053832;28;11603;-75
2021/10/08 03:22:05;;;;;;;;;32.25;27.25;;;;;9.29;41.92;102842.78;5054897;28;11746;-75
2021/10/08 03:25:01;;;;;;;;;22.25;22.25;;;;;9.24;41.75;102845.50;5054110;28;11601;-76
2021/10/08 03:27:57;;;;;;;;;27.50;26.25;;;;;9.30;41.74;102840.84;5054484;28;11594;-77
2021/10/08 03:30:52;;;;;;;;;28.75;27.50;;;;;9.46;41.02;102842.56;5053894;28;11747;-76
2021/10/08 03:33:48;;;;;;;;;32.50;28.25;;;;;9.24;41.22;102850.22;5053773;28;11624;-77
2021/10/08 03:36:46;;;;;;;;;43.75;39.50;;;;;9.30;41.53;102838.09;5038928;28;11607;-74
2021/10/08 03:39:47;;;;;;;;;34.25;32.00;;;;;9.36;41.32;102848.06;5053539;28;11730;-75
2021/10/08 03:42:42;;;;;;;;;74.50;54.00;;;;;9.33;41.09;102840.28;5040324;28;11579;-75
2021/10/08 03:45:49;;;;;;;;;27.75;27.50;;;;;9.24;41.79;102844.69;5046233;28;11588;-75
2021/10/08 03:51:58;;;;;;;;;36.50;33.50;;;;;9.28;41.55;102848.53;5053755;28;11583;-75
2021/10/08 03:54:54;;;;;;;;;24.25;23.50;;;;;9.22;41.74;102853.25;5045907;28;11611;-75
2021/10/08 03:57:49;;;;;;;;;26.25;25.50;;;;;9.23;41.91;102848.53;5053232;28;11618;-77
2021/10/08 04:00:45;;;;;;;;;24.75;20.75;;;;;9.27;41.91;102841.38;5040201;28;11593;-75
2021/10/08 04:03:42;;;;;;;;;27.00;27.00;;;;;9.38;41.80;102843.09;5040315;28;11703;-75
2021/10/08 04:06:37;;;;;;;;;26.25;22.00;;;;;9.19;42.00;102835.25;5056425;28;11566;-74
2021/10/08 04:09:33;;;;;;;;;26.25;24.00;;;;;9.11;42.42;102841.31;5072991;28;12395;-76
2021/10/08 04:12:28;;;;;;;;;27.50;25.25;;;;;9.00;42.32;102841.53;5051929;28;11586;-75
2021/10/08 04:15:25;;;;;;;;;18.50;18.50;;;;;9.23;42.23;102843.84;5037289;28;11586;-76
2021/10/08 04:18:21;;;;;;;;;24.25;21.75;;;;;9.17;42.30;102845.75;5051752;28;11588;-75
2021/10/08 04:21:16;;;;;;;;;23.00;21.00;;;;;9.28;42.32;102843.03;5052249;28;11571;-74
2021/10/08 04:24:12;;;;;;;;;25.00;24.25;;;;;9.19;42.24;102854.59;5039443;28;11606;-75
2021/10/08 04:27:07;;;;;;;;;13.25;12.25;;;;;9.30;42.53;102862.94;5040490;28;11616;-73
2021/10/08 04:30:04;;;;;;;;;9.00;9.00;;;;;9.18;42.56;102874.19;5039253;28;11639;-73
2021/10/08 04:33:01;;;;;;;;;21.25;19.00;;;;;9.21;42.55;102872.84;5032863;28;11570;-75
2021/10/08 04:35:59;;;;;;;;;39.75;20.75;;;;;9.26;42.61;102873.69;5019128;28;11598;-74
2021/10/08 04:38:55;;;;;;;;;9.50;9.50;;;;;9.19;42.64;102868.41;5022059;28;11644;-74
2021/10/08 04:41:25;;;;;;;;;16.00;16.00;;;;;9.18;42.80;102863.16;5053918;28;11492;-73
2021/10/08 04:43:52;;;;;;;;;23.75;19.50;;;;;9.22;42.73;102871.75;5053394;28;11668;-74
2021/10/08 04:46:48;;;;;;;;;14.50;12.75;;;;;9.22;42.58;102877.25;5054056;28;11600;-71
2021/10/08 04:49:44;;;;;;;;;17.00;17.00;;;;;9.28;42.77;102873.41;5023768;28;11614;-72
2021/10/08 04:52:39;;;;;;;;;17.00;17.00;;;;;9.36;42.87;102882.03;5032279;28;11797;-72
2021/10/08 04:55:35;;;;;;;;;21.25;17.75;;;;;9.28;42.53;102882.53;5032384;28;11636;-73
2021/10/08 04:58:30;;;;;;;;;32.75;32.75;;;;;9.32;42.92;102891.94;5032469;28;11758;-72
2021/10/08 05:01:29;;;;;;;;;17.75;16.75;;;;;9.34;43.00;102894.44;5032175;28;12395;-72
2021/10/08 05:03:58;;;;;;;;;17.25;16.50;;;;;9.30;42.71;102898.84;5033421;28;11593;-72
2021/10/08 05:06:27;;;;;;;;;17.75;17.00;;;;;9.43;42.74;102898.31;5033363;28;11591;-72
2021/10/08 05:08:54;;;;;;;;;14.75;14.50;;;;;9.36;43.05;102901.38;5015874;28;11606;-74
2021/10/08 05:11:22;;;;;;;;;12.75;12.75;;;;;9.34;42.86;102902.72;5024253;28;11670;-73
2021/10/08 05:13:51;;;;;;;;;38.00;31.00;;;;;9.33;43.36;102898.28;5035341;28;11567;-74
2021/10/08 05:16:46;;;;;;;;;17.00;16.25;;;;;9.19;43.75;102911.75;5038665;28;11634;-73
2021/10/08 05:19:57;;;;;;;;;14.75;14.25;;;;;9.23;43.64;102906.53;5049747;28;11602;-73
2021/10/08 05:22:53;;;;;;;;;13.75;13.75;;;;;9.31;43.60;102917.06;5051959;28;11527;-73
2021/10/08 05:25:48;;;;;;;;;14.25;13.25;;;;;9.52;43.36;102902.25;5051812;28;11504;-73
2021/10/08 05:28:44;;;;;;;;;14.50;14.50;;;;;9.37;43.65;102904.94;5038815;28;11595;-72
2021/10/08 05:31:39;;;;;;;;;9.75;9.75;;;;;9.28;43.83;102909.31;5038668;28;11575;-74
2021/10/08 05:34:37;;;;;;;;;10.75;10.75;;;;;9.28;43.93;102904.63;5051631;28;11486;-73
2021/10/08 05:37:33;;;;;;;;;20.50;20.50;;;;;9.39;43.80;102903.56;5052258;28;11614;-73
2021/10/08 05:40:28;;;;;;;;;17.75;16.00;;;;;9.44;44.27;102922.13;5051524;28;11590;-73
2021/10/08 05:43:24;;;;;;;;;12.75;12.75;;;;;9.31;44.66;102925.34;5051227;28;11734;-72
2021/10/08 05:46:20;;;;;;;;;11.00;11.00;;;;;9.38;44.82;102923.19;5052880;28;11513;-73
2021/10/08 05:49:15;;;;;;;;;16.25;15.25;;;;;9.55;44.60;102920.22;5051474;28;11565;-73
2021/10/08 05:52:11;;;;;;;;;19.00;19.00;;;;;9.55;44.35;102925.75;5052599;28;11617;-73
2021/10/08 05:55:06;;;;;;;;;19.75;16.75;;;;;9.46;44.97;102928.19;5051458;28;11688;-73
2021/10/08 05:58:03;;;;;;;;;10.75;10.75;;;;;9.37;45.47;102927.03;5051209;28;11684;-73
2021/10/08 06:00:58;;;;;;;;;14.25;14.25;;;;;9.43;45.50;102923.19;5051254;28;11494;-73
2021/10/08 06:03:54;;;;;;;;;13.75;11.75;;;;;9.39;45.71;102919.31;5051452;28;11696;-72
2021/10/08 06:06:49;;;;;;;;;19.75;19.50;;;;;9.48;45.50;102931.50;5051078;28;11508;-73
2021/10/08 06:09:46;;;;;;;;;23.50;21.75;;;;;9.51;45.57;102930.13;5042479;28;11590;-72
2021/10/08 06:12:42;;;;;;;;;22.50;22.50;;;;;9.59;45.86;102936.00;5056173;28;11622;-73
2021/10/08 06:15:37;;;;;;;;;23.00;20.00;;;;;9.90;45.46;102930.59;5056754;28;11604;-72
2021/10/08 06:18:33;;;;;;;;;22.50;18.50;;;;;9.57;46.00;102940.09;5057817;28;12333;-73
2021/10/08 06:21:28;;;;;;;;;23.50;20.75;;;;;9.63;45.96;102939.03;5054762;28;11650;-72
2021/10/08 06:24:25;;;;;;;;;12.00;12.00;;;;;9.64;46.50;102933.22;5054924;28;12316;-73
2021/10/08 06:27:21;;;;;;;;;16.50;16.50;;;;;9.54;46.37;102933.19;5041777;28;12402;-73
2021/10/08 06:30:18;;;;;;;;;25.75;20.75;;;;;9.65;46.98;102928.53;5054980;28;11550;-73
2021/10/08 06:33:14;;;;;;;;;21.50;20.00;;;;;9.70;46.82;102926.63;5054132;28;11577;-73
2021/10/08 06:36:10;;;;;;;;;25.50;23.75;;;;;9.88;46.68;102932.75;5054814;28;11731;-73
2021/10/08 06:39:05;;;;;;;;;14.00;14.00;;;;;9.78;47.37;102925.28;5054697;28;11609;-72
2021/10/08 06:42:01;;;;;;;;;22.75;21.25;;;;;9.84;47.07;102937.19;5054775;28;11610;-72
2021/10/08 06:44:57;;;;;;;;;16.25;14.25;;;;;10.08;46.67;102932.00;5054552;28;11655;-73
2021/10/08 06:47:54;;;;;;;;;22.75;22.25;;;;;10.03;46.99;102924.50;5054560;28;11553;-73
2021/10/08 06:50:49;;;;;;;;;25.00;25.00;;;;;10.03;46.79;102930.88;5054491;28;11533;-71
2021/10/08 06:53:45;;;;;;;;;13.25;13.25;;;;;10.16;46.72;102934.22;5054329;28;12357;-72
2021/10/08 06:56:40;;;;;;;;;24.75;23.50;;;;;10.26;46.62;102935.09;5042639;28;12281;-73
2021/10/08 06:59:36;;;;;;;;;31.75;30.50;;;;;10.29;46.56;102929.03;5054300;28;11567;-73
2021/10/08 07:02:32;;;;;;;;;24.25;24.25;;;;;10.36;46.33;102930.72;5055048;28;11566;-73
2021/10/08 07:05:28;;;;;;;;;28.75;27.25;;;;;10.29;46.42;102931.81;5055712;28;11591;-72
2021/10/08 07:08:23;;;;;;;;;35.25;31.25;;;;;10.68;45.71;102936.81;5040884;28;11579;-73
2021/10/08 07:11:19;;;;;;;;;13.75;12.50;;;;;10.53;46.01;102929.31;5054120;28;11578;-73
2021/10/08 07:14:14;;;;;;;;;15.00;14.00;;;;;10.86;45.23;102922.38;5053911;28;11517;-72
2021/10/08 07:17:11;;;;;;;;;19.75;16.75;;;;;11.15;45.28;102935.63;5041540;28;11507;-72
2021/10/08 07:20:07;;;;;;;;;12.50;12.25;;;;;11.19;44.80;102922.88;5053614;28;11665;-71
2021/10/08 07:23:02;;;;;;;;;15.50;13.50;;;;;11.08;45.04;102929.56;5053864;28;11563;-72
2021/10/08 07:26:00;;;;;;;;;30.75;29.00;;;;;11.22;44.96;102924.25;5054046;28;11521;-71
2021/10/08 07:28:55;;;;;;;;;23.25;23.25;;;;;11.17;45.11;102915.97;5041364;28;11574;-72
2021/10/08 07:31:51;;;;;;;;;16.75;16.75;;;;;11.18;45.01;102907.38;5058915;28;11516;-72
2021/10/08 07:34:46;;;;;;;;;17.50;15.75;;;;;11.05;45.65;102899.66;5053885;28;11602;-75
2021/10/08 07:37:43;;;;;;;;;32.75;24.50;;;;;11.28;45.40;102907.34;5041193;28;11481;-73
2021/10/08 07:40:38;;;;;;;;;17.25;17.25;;;;;11.45;45.06;102912.56;5053573;28;11550;-73
2021/10/08 07:43:36;;;;;;;;;21.50;20.25;;;;;11.75;44.63;102902.44;5053596;28;11567;-74
2021/10/08 07:46:32;;;;;;;;;19.00;18.50;;;;;11.89;44.41;102907.13;5053590;28;11658;-74
2021/10/08 07:49:28;;;;;;;;;15.25;15.25;;;;;11.83;44.25;102910.19;5057262;28;12267;-72
2021/10/08 07:52:24;;;;;;;;;16.00;16.00;;;;;12.09;44.55;102910.88;5053956;28;11494;-72
2021/10/08 07:55:20;;;;;;;;;19.75;17.25;;;;;12.25;44.12;102912.41;5059837;28;11199;-72
2021/10/08 07:58:16;;;;;;;;;15.00;14.25;;;;;12.34;43.55;102907.06;5039750;28;11351;-73
2021/10/08 08:01:11;;;;;;;;;15.00;7.50;;;;;12.69;42.78;102897.63;5053218;28;11139;-75
2021/10/08 08:04:07;;;;;;;;;6.50;6.50;;;;;12.63;43.13;102910.72;5052176;28;11075;-74
2021/10/08 08:07:06;;;;;;;;;13.75;12.25;;;;;12.89;42.22;102903.00;5053480;28;11581;-74
2021/10/08 08:10:03;;;;;;;;;13.50;11.75;;;;;12.90;42.71;102899.09;5053254;28;10877;-75
2021/10/08 08:12:59;;;;;;;;;16.00;16.00;;;;;12.99;41.97;102908.44;5038064;28;10907;-72
2021/10/08 08:15:55;;;;;;;;;15.00;13.75;;;;;12.93;41.78;102901.28;5052879;28;11053;-74
2021/10/08 08:18:54;;;;;;;;;10.00;10.00;;;;;12.66;41.80;102898.22;5039131;28;10893;-72
2021/10/08 08:21:49;;;;;;;;;10.00;8.25;;;;;12.71;41.59;102900.94;5040073;28;10581;-73
2021/10/08 08:24:45;;;;;;;;;15.25;14.00;;;;;12.45;41.83;102903.94;5052033;28;10456;-73
2021/10/08 08:27:40;;;;;;;;;9.00;8.00;;;;;12.56;41.95;102904.69;5054199;28;10811;-72
2021/10/08 08:30:38;;;;;;;;;9.50;9.50;;;;;12.53;41.53;102905.28;5052501;28;10798;-72
2021/10/08 08:33:35;;;;;;;;;13.50;12.50;;;;;12.67;41.62;102905.44;5051701;28;10699;-73
2021/10/08 08:36:31;;;;;;;;;20.00;17.75;;;;;12.46;41.40;102899.22;5052588;28;10791;-73
2021/10/08 08:39:27;;;;;;;;;23.00;18.25;;;;;12.75;41.85;102910.34;5052526;28;11061;-73
2021/10/08 08:42:23;;;;;;;;;16.50;16.25;;;;;12.87;41.25;102907.16;5052281;28;10998;-73
2021/10/08 08:45:18;;;;;;;;;7.00;7.00;;;;;13.05;40.97;102912.84;5051799;28;10987;-74
2021/10/08 08:48:14;;;;;;;;;14.00;12.75;;;;;13.19;40.65;102912.09;5051590;28;10439;-73
2021/10/08 08:51:09;;;;;;;;;10.50;10.50;;;;;13.00;40.05;102925.94;5052773;28;10613;-73
2021/10/08 08:54:08;;;;;;;;;4.25;4.25;;;;;13.04;40.06;102925.06;5049689;28;10581;-73
2021/10/08 08:57:18;;;;;;;;;8.75;8.75;;;;;13.37;40.03;102916.13;5039201;28;10459;-73
2021/10/08 09:00:19;;;;;;;;;10.50;10.00;;;;;13.22;39.38;102929.06;5050963;28;10592;-73
2021/10/08 09:03:16;;;;;;;;;27.25;24.25;;;;;13.32;42.75;102912.28;5051814;28;10401;-74
2021/10/08 09:05:47;;;;;;;;;17.50;16.00;;;;;14.02;46.28;102908.84;5052522;28;10934;-75
2021/10/08 09:08:32;;;;;;;;;42.25;35.00;;;;;14.91;43.70;102913.56;5052984;28;10774;-72
2021/10/08 09:11:05;;;;;;;;;47.00;37.75;;;;;15.27;53.19;102908.97;5035994;28;11020;-73
2021/10/08 09:13:33;;;;;;;;;14.50;11.25;;;;;15.23;38.32;102896.75;5051560;28;10447;-73
2021/10/08 09:16:03;;;;;;;;;11.00;11.00;;;;;14.92;43.97;102904.06;5052632;28;10130;-72
2021/10/08 09:18:33;;;;;;;;;17.00;17.00;;;;;15.16;44.13;102903.88;5068249;28;9993;-72
2021/10/08 09:21:09;;;;;;;;;22.75;22.75;;;;;14.98;46.46;102892.53;5052816;28;9869;-73
2021/10/08 09:23:46;;;;;;;;;18.75;16.00;;;;;15.24;44.03;102894.81;5052770;28;10020;-71
2021/10/08 09:26:25;;;;;;;;;15.75;14.75;;;;;15.17;43.08;102895.22;5035254;28;9959;-75
2021/10/08 09:28:56;;;;;;;;;14.25;13.75;;;;;15.23;43.60;102885.63;5052839;28;10585;-73
2021/10/08 09:31:37;;;;;;;;;11.50;11.50;;;;;14.49;45.77;102879.19;5051680;28;10107;-73
2021/10/08 09:34:21;;;;;;;;;9.75;9.75;;;;;14.70;43.31;102869.34;5049911;28;10565;-74
2021/10/08 09:36:57;;;;;;;;;14.25;14.25;;;;;15.20;42.09;102879.84;5052781;28;10016;-73
2021/10/08 09:39:29;;;;;;;;;17.25;15.00;;;;;15.71;40.26;102871.25;5052851;28;10129;-73
2021/10/08 09:42:05;;;;;;;;;33.00;31.75;;;;;16.01;38.35;102866.91;5052948;28;10022;-74
2021/10/08 09:44:36;;;;;;;;;14.50;13.75;;;;;16.60;41.29;102866.88;5054994;28;10520;-74
2021/10/08 09:47:08;;;;;;;;;12.75;12.50;;;;;16.63;35.26;102863.44;5039315;28;9570;-74
2021/10/08 09:49:37;;;;;;;;;6.00;6.00;;;;;17.30;34.30;102846.50;5056893;28;10490;-74
2021/10/08 09:52:38;;;;;;;;;7.00;5.67;;;;;17.17;42.62;102858.63;5056651;28;9320;-74
2021/10/08 09:55:11;;;;;;;;;24.25;22.75;;;;;17.58;34.76;102849.84;5003081;28;9088;-74
2021/10/08 09:57:47;;;;;;;;;19.00;17.00;;;;;17.98;34.58;102853.38;5056470;28;9565;-74
2021/10/08 10:00:57;;;;;;;;;13.67;12.00;;;;;17.99;34.61;102849.41;5056655;28;9326;-74
2021/10/08 10:03:26;;;;;;;;;13.33;13.33;;;;;18.05;34.89;102856.50;5056347;28;9102;-74
2021/10/08 10:05:57;;;;;;;;;11.50;10.75;;;;;17.57;36.67;102847.41;5038816;28;8922;-73
2021/10/08 10:08:26;;;;;;;;;22.33;20.67;;;;;17.90;34.97;102850.56;5071762;28;8853;-73
2021/10/08 10:11:02;;;;;;;;;17.50;15.00;;;;;17.95;37.14;102842.84;5056011;28;8948;-72
2021/10/08 10:13:31;;;;;;;;;9.67;9.67;;;;;17.50;32.26;102831.91;5055669;28;8848;-73
2021/10/08 10:16:30;;;;;;;;;10.00;9.33;;;;;17.24;32.62;102839.41;5035751;28;8964;-72
2021/10/08 10:18:59;;;;;;;;;8.00;7.00;;;;;17.33;32.68;102833.81;5035956;28;9128;-72
2021/10/08 10:21:41;;;;;;;;;16.33;16.00;;;;;16.92;32.93;102821.03;5030858;28;9110;-71
2021/10/08 10:24:09;;;;;;;;;22.67;21.00;;;;;17.23;32.06;102823.78;5026964;28;9067;-73
2021/10/08 10:26:37;;;;;;;;;16.00;14.33;;;;;17.80;31.46;102837.75;5044083;28;9311;-72
2021/10/08 10:29:36;;;;;;;;;13.00;13.00;;;;;17.55;31.87;102835.69;5024453;28;9033;-72
2021/10/08 10:32:39;;;;;;;;;8.25;8.25;;;;;17.83;31.85;102827.84;5016040;28;9056;-71
2021/10/08 10:35:37;;;;;;;;;29.67;22.00;;;;;17.24;32.14;102831.00;5017822;28;8851;-71
2021/10/08 10:38:33;;;;;;;;;11.00;11.00;;;;;17.05;32.67;102828.50;5035815;28;9179;-71
2021/10/08 10:41:28;;;;;;;;;18.67;12.00;;;;;16.69;32.55;102828.66;5030084;28;9076;-69
2021/10/08 10:44:16;;;;;;;;;15.33;12.33;;;;;16.23;33.25;102829.81;5035217;28;8938;-70
2021/10/08 10:47:21;;;;;;;;;12.33;9.67;;;;;16.20;33.93;102833.25;5033953;28;9168;-70
2021/10/08 10:50:38;;;;;;;;;13.67;12.67;;;;;16.16;33.74;102823.03;5034682;28;9431;-70
2021/10/08 10:53:06;;;;;;;;;13.67;13.67;;;;;16.16;33.78;102826.66;5031210;28;9310;-70
2021/10/08 10:56:01;;;;;;;;;11.50;11.50;;;;;15.82;34.05;102827.22;5015806;28;9331;-70
2021/10/08 10:58:43;;;;;;;;;15.00;15.00;;;;;15.84;34.12;102825.75;5019109;28;9555;-71
2021/10/08 11:02:17;;;;;;;;;13.00;13.00;;;;;15.69;34.34;102820.53;5015428;28;10161;-70
2021/10/08 11:05:21;;;;;;;;;16.75;16.75;;;;;15.67;33.84;102831.19;5015512;28;9527;-71
2021/10/08 11:08:18;;;;;;;;;13.50;13.50;;;;;15.56;33.16;102827.78;5015694;28;9731;-70
2021/10/08 11:11:00;;;;;;;;;14.00;14.00;;;;;15.21;33.87;102817.38;5014564;28;9688;-69
2021/10/08 11:13:42;;;;;;;;;11.25;10.75;;;;;15.20;34.51;102812.94;5014716;28;9874;-70
2021/10/08 11:16:38;;;;;;;;;14.00;14.00;;;;;15.16;33.98;102820.28;5053719;28;9538;-70
2021/10/08 11:19:38;;;;;;;;;9.00;7.00;;;;;14.90;34.47;102822.75;5043038;28;9865;-69
2021/10/08 11:22:07;;;;;;;;;5.50;5.50;;;;;15.19;34.02;102811.31;5054602;28;9709;-69
2021/10/08 11:24:36;;;;;;;;;22.75;16.50;;;;;15.08;33.60;102819.03;5054620;28;9677;-71
2021/10/08 11:27:33;;;;;;;;;14.00;13.75;;;;;15.40;33.43;102806.91;5038955;28;9750;-71
2021/10/08 11:30:29;;;;;;;;;23.50;23.50;;;;;15.37;33.60;102801.16;5053874;28;10092;-71
2021/10/08 11:33:36;;;;;;;;;26.00;22.75;;;;;15.61;32.20;102810.09;5053783;28;10356;-71
2021/10/08 11:36:33;;;;;;;;;46.00;34.75;;;;;15.37;32.41;102809.50;5053771;28;10020;-70
2021/10/08 11:39:10;;;;;;;;;25.50;24.00;;;;;15.38;32.27;102812.00;5053720;28;10380;-70
2021/10/08 11:42:10;;;;;;;;;18.50;16.25;;;;;15.18;32.19;102813.25;5053700;28;11146;-71
2021/10/08 11:45:08;;;;;;;;;43.00;35.75;;;;;14.90;31.98;102818.00;5053651;28;9934;-70
2021/10/08 11:48:14;;;;;;;;;23.25;21.25;;;;;14.74;32.02;102825.00;5052615;28;10463;-70
2021/10/08 11:51:09;;;;;;;;;14.50;14.50;;;;;14.84;31.43;102821.19;5054689;28;10212;-70
2021/10/08 11:54:05;;;;;;;;;14.50;14.50;;;;;15.22;31.40;102814.28;5033219;28;10060;-71
2021/10/08 11:57:09;;;;;;;;;29.25;29.25;;;;;15.27;30.95;102818.94;5034304;28;11023;-70
2021/10/08 12:00:05;;;;;;;;;24.25;24.25;;;;;15.30;30.96;102807.97;5049683;28;10542;-71
2021/10/08 12:03:04;;;;;;;;;31.00;31.00;;;;;15.37;30.40;102815.09;5038367;28;11228;-72
2021/10/08 12:06:01;;;;;;;;;21.25;21.00;;;;;15.42;30.06;102809.41;5045567;28;10617;-69
2021/10/08 12:09:02;;;;;;;;;33.50;31.00;;;;;15.78;29.51;102815.84;5054163;28;10128;-70
2021/10/08 12:11:31;;;;;;;;;27.25;27.25;;;;;15.68;28.92;102824.47;5035587;28;10679;-72
2021/10/08 12:14:27;;;;;;;;;10.75;10.75;;;;;15.55;27.92;102814.13;5054390;28;10238;-71
2021/10/08 12:17:23;;;;;;;;;7.25;7.25;;;;;15.58;27.88;102808.75;5040125;28;9612;-71
2021/10/08 12:20:28;;;;;;;;;5.00;5.00;;;;;15.34;28.07;102819.34;5050055;28;9633;-71
2021/10/08 12:23:24;;;;;;;;;13.00;13.00;;;;;15.40;28.01;102820.03;5051683;28;9687;-70
2021/10/08 12:26:21;;;;;;;;;30.25;28.25;;;;;15.21;27.74;102817.38;5052418;28;9679;-71
2021/10/08 12:29:17;;;;;;;;;18.00;18.00;;;;;15.21;27.20;102809.84;5052786;28;10534;-71
2021/10/08 12:32:25;;;;;;;;;30.25;30.25;;;;;15.14;26.66;102820.59;5053731;28;10871;-71
2021/10/08 12:35:20;;;;;;;;;46.75;38.50;;;;;15.07;26.39;102817.38;5026070;28;11349;-69
2021/10/08 12:38:16;;;;;;;;;44.25;35.25;;;;;15.30;25.77;102813.53;5052069;28;11072;-71
2021/10/08 12:41:25;;;;;;;;;51.75;42.50;;;;;15.23;26.01;102815.09;5051891;28;11169;-70
2021/10/08 12:44:24;;;;;;;;;40.00;36.50;;;;;15.36;26.20;102816.22;5052427;28;11242;-70
2021/10/08 12:50:22;;;;;;;;;24.00;21.75;;;;;15.14;25.04;102806.66;5045670;28;10294;-70
2021/10/08 12:53:20;;;;;;;;;39.00;33.00;;;;;15.38;25.88;102811.16;5052222;28;10777;-69
2021/10/08 12:55:49;;;;;;;;;29.25;27.25;;;;;15.45;25.09;102806.00;5068617;28;10599;-70
2021/10/08 12:58:54;;;;;;;;;14.50;14.50;;;;;15.15;24.88;102805.50;5052200;28;10356;-70
2021/10/08 13:01:55;;;;;;;;;22.25;22.00;;;;;15.24;25.66;102802.81;5053524;28;10030;-69
2021/10/08 13:05:04;;;;;;;;;17.75;16.50;;;;;15.12;25.27;102806.13;5051837;28;10199;-70
2021/10/08 13:08:18;;;;;;;;;24.25;22.00;;;;;15.24;25.30;102795.28;5052025;28;10800;-70
2021/10/08 13:11:02;;;;;;;;;16.50;15.50;;;;;15.24;25.35;102803.63;5051979;28;10361;-70
2021/10/08 13:13:58;;;;;;;;;20.75;20.25;;;;;15.34;25.54;102794.25;5051091;28;10886;-71
2021/10/08 13:16:55;;;;;;;;;14.50;14.50;;;;;15.42;25.64;102795.47;5038173;28;10028;-69
2021/10/08 13:19:50;;;;;;;;;20.25;20.25;;;;;15.34;25.14;102790.63;5052845;28;9975;-71
2021/10/08 13:22:24;;;;;;;;;27.25;26.75;;;;;15.29;25.51;102797.97;5052526;28;10117;-70